Orbital elements of COSMOS 2449
| Launched | 24 December 2008 |
| Flight ended | – |
| Launch site | Tyuratam Missile and Space Center, Kazakhstan (Also known as Baikonur Cosmodrome) |
| Owner | Commonwealth of Independent States (former USSR) |
| NORAD ID | 33467 |
| Alternative names |
GLONASS-M GLONASS-M 20 GN 729 |
| Date fetched |
Epoch osculation |
Inc. [°] |
Ecc. | RA asc node [hr] |
Arg Peri. [°] |
Mean anom [°] |
Mean motion [rev/day] |
Abs. mag |
| Date fetched |
Epoch osculation |
Inc. [°] |
Ecc. | RA asc node [hr] |
Arg Peri. [°] |
Mean anom [°] |
Mean motion [rev/day] |
Abs. mag |
| 2026 May 03 17:57 | 2026 Apr 28 03:25:16 | 64.7810 | 0.00335 | 4.7319 | 238.8837 | 120.7601 | 2.13097 | – |
| 2026 May 02 17:57 | 2026 Apr 28 03:25:16 | 64.7810 | 0.00335 | 4.7319 | 238.8837 | 120.7601 | 2.13097 | – |
| 2026 May 01 17:56 | 2026 Apr 28 03:25:16 | 64.7810 | 0.00335 | 4.7319 | 238.8837 | 120.7601 | 2.13097 | – |
| 2026 Apr 30 17:56 | 2026 Apr 28 03:25:16 | 64.7810 | 0.00335 | 4.7319 | 238.8837 | 120.7601 | 2.13097 | – |
| 2026 Apr 29 17:57 | 2026 Apr 22 01:00:31 | 64.7774 | 0.00335 | 4.7459 | 238.9402 | 120.7601 | 2.13097 | – |
| 2026 Apr 28 17:56 | 2026 Apr 22 01:00:31 | 64.7774 | 0.00335 | 4.7459 | 238.9402 | 120.7601 | 2.13097 | – |
| 2026 Apr 27 17:58 | 2026 Apr 22 01:00:31 | 64.7774 | 0.00335 | 4.7459 | 238.9402 | 120.7601 | 2.13097 | – |
| 2026 Apr 26 17:58 | 2026 Apr 22 01:00:31 | 64.7774 | 0.00335 | 4.7459 | 238.9402 | 120.7601 | 2.13097 | – |
| 2026 Apr 25 17:58 | 2026 Apr 22 01:00:31 | 64.7774 | 0.00335 | 4.7459 | 238.9402 | 120.7601 | 2.13097 | – |
| 2026 Apr 24 17:59 | 2026 Apr 22 01:00:31 | 64.7774 | 0.00335 | 4.7459 | 238.9402 | 120.7601 | 2.13097 | – |
| 2026 Apr 23 17:57 | 2026 Apr 19 05:26:00 | 64.7757 | 0.00335 | 4.7523 | 238.9592 | 120.7601 | 2.13097 | – |
| 2026 Apr 22 17:57 | 2026 Apr 19 05:26:00 | 64.7757 | 0.00335 | 4.7523 | 238.9592 | 120.7601 | 2.13097 | – |
| 2026 Apr 21 17:57 | 2026 Apr 19 05:26:00 | 64.7757 | 0.00335 | 4.7523 | 238.9592 | 120.7601 | 2.13097 | – |
| 2026 Apr 20 17:57 | 2026 Apr 19 05:26:00 | 64.7757 | 0.00335 | 4.7523 | 238.9592 | 120.7601 | 2.13097 | – |
| 2026 Apr 19 17:58 | 2026 Apr 19 05:26:00 | 64.7757 | 0.00335 | 4.7523 | 238.9592 | 120.7601 | 2.13097 | – |
| 2026 Apr 18 17:56 | 2026 Apr 12 15:45:31 | 64.7716 | 0.00336 | 4.7674 | 239.0127 | 120.7601 | 2.13097 | – |
| 2026 Apr 16 17:57 | 2026 Apr 12 15:45:31 | 64.7716 | 0.00336 | 4.7674 | 239.0127 | 120.7601 | 2.13097 | – |
| 2026 Apr 14 17:57 | 2026 Apr 12 15:45:31 | 64.7716 | 0.00336 | 4.7674 | 239.0127 | 120.7601 | 2.13097 | – |
| 2026 Apr 13 17:57 | 2026 Apr 12 15:45:31 | 64.7716 | 0.00336 | 4.7674 | 239.0127 | 120.7601 | 2.13097 | – |
| 2026 Apr 12 17:57 | 2026 Apr 07 23:07:59 | 64.7687 | 0.00337 | 4.7781 | 239.0354 | 120.7601 | 2.13097 | – |
| 2026 Apr 11 17:57 | 2026 Apr 07 23:07:59 | 64.7687 | 0.00337 | 4.7781 | 239.0354 | 120.7601 | 2.13097 | – |
| 2026 Apr 10 17:58 | 2026 Apr 07 23:07:59 | 64.7687 | 0.00337 | 4.7781 | 239.0354 | 120.7601 | 2.13097 | – |
| 2026 Apr 09 18:01 | 2026 Apr 07 23:07:59 | 64.7687 | 0.00337 | 4.7781 | 239.0354 | 120.7601 | 2.13097 | – |
| 2026 Apr 08 17:57 | 2026 Apr 07 23:07:59 | 64.7687 | 0.00337 | 4.7781 | 239.0354 | 120.7601 | 2.13097 | – |
| 2026 Apr 07 17:57 | 2026 Apr 01 09:27:28 | 64.7645 | 0.00336 | 4.7931 | 239.0134 | 120.7601 | 2.13097 | – |
| 2026 Apr 06 17:57 | 2026 Apr 01 09:27:28 | 64.7645 | 0.00336 | 4.7931 | 239.0134 | 120.7601 | 2.13097 | – |